createdAt,value
2023-03-24T00:02:16.491Z,70.30
2023-03-24T00:04:45.519Z,70.40
2023-03-24T00:07:14.840Z,70.40
2023-03-24T00:09:46.394Z,70.30
2023-03-24T00:12:18.619Z,70.20
2023-03-24T00:14:48.060Z,70.20
2023-03-24T00:17:18.019Z,70.20
2023-03-24T00:19:47.314Z,70.30
2023-03-24T00:22:16.554Z,70.30
2023-03-24T00:24:47.488Z,70.40
2023-03-24T00:27:17.696Z,70.30
2023-03-24T00:29:46.726Z,70.20
2023-03-24T00:32:15.759Z,70.30
2023-03-24T00:34:44.926Z,70.40
2023-03-24T00:37:14.172Z,70.40
2023-03-24T00:39:43.943Z,70.30
2023-03-24T00:42:14.923Z,70.30
2023-03-24T00:44:44.895Z,70.30
2023-03-24T00:47:13.945Z,70.20
2023-03-24T00:49:45.883Z,70.10
2023-03-24T00:52:18.175Z,70.20
2023-03-24T00:54:47.748Z,70.30
2023-03-24T00:57:22.091Z,70.30
2023-03-24T00:59:51.899Z,70.30
2023-03-24T01:02:24.663Z,70.40
2023-03-24T01:04:55.148Z,70.50
2023-03-24T01:07:25.093Z,70.60
2023-03-24T01:09:57.974Z,70.70
2023-03-24T01:12:30.469Z,70.80
2023-03-24T01:15:00.647Z,70.90
2023-03-24T01:17:31.016Z,70.90
2023-03-24T01:20:00.285Z,70.90
2023-03-24T01:22:30.832Z,71.10
2023-03-24T01:25:00.971Z,71.10
2023-03-24T01:27:31.466Z,71.10
2023-03-24T01:30:01.983Z,71.10
2023-03-24T01:32:31.362Z,71.20
2023-03-24T01:35:01.018Z,71.20
2023-03-24T01:37:30.054Z,71.20
2023-03-24T01:39:59.092Z,71.30
2023-03-24T01:42:30.816Z,71.40
2023-03-24T01:45:03.289Z,71.40
2023-03-24T01:47:34.061Z,71.40
2023-03-24T01:50:05.244Z,71.50
2023-03-24T01:52:37.634Z,71.70
2023-03-24T01:55:12.344Z,71.80
2023-03-24T01:57:46.424Z,72.10
2023-03-24T02:00:18.453Z,72.30
2023-03-24T02:03:21.001Z,72.50
2023-03-24T02:05:58.656Z,72.70
2023-03-24T02:08:32.929Z,72.90
2023-03-24T02:11:03.286Z,72.90
2023-03-24T02:13:42.843Z,73.00
2023-03-24T02:16:22.998Z,73.10
2023-03-24T02:19:03.059Z,73.20
2023-03-24T02:22:01.646Z,73.40
2023-03-24T02:25:21.647Z,73.40
2023-03-24T02:28:13.654Z,73.20
2023-03-24T02:31:10.337Z,73.10
2023-03-24T02:34:27.417Z,73.00
2023-03-24T02:37:27.591Z,73.10
2023-03-24T02:40:22.938Z,73.10
2023-03-24T02:43:07.705Z,73.10
2023-03-24T02:45:41.031Z,73.10
2023-03-24T02:48:24.773Z,73.00
2023-03-24T02:51:02.259Z,73.00
2023-03-24T02:53:37.656Z,73.00
2023-03-24T02:56:37.040Z,73.00
2023-03-24T02:59:27.838Z,73.00
2023-03-24T03:02:05.240Z,73.00
2023-03-24T03:04:52.474Z,73.00
2023-03-24T03:07:25.154Z,73.00
2023-03-24T03:09:58.754Z,72.90
2023-03-24T03:12:35.322Z,72.90
2023-03-24T03:15:08.439Z,72.90
2023-03-24T03:17:43.010Z,72.80
2023-03-24T03:20:17.704Z,72.80
2023-03-24T03:22:51.767Z,72.90
2023-03-24T03:25:25.649Z,72.90
2023-03-24T03:27:58.803Z,72.90
2023-03-24T03:30:34.373Z,73.00
2023-03-24T03:33:07.820Z,73.00
2023-03-24T03:35:40.457Z,73.10
2023-03-24T03:38:15.772Z,73.00
2023-03-24T03:40:51.716Z,72.90
2023-03-24T03:43:27.779Z,72.80
2023-03-24T03:45:57.199Z,72.70
2023-03-24T03:48:33.364Z,72.90
2023-03-24T03:51:13.026Z,72.80
2023-03-24T03:53:51.624Z,73.10
2023-03-24T03:56:23.711Z,73.30
2023-03-24T03:59:08.915Z,73.30
2023-03-24T04:01:42.070Z,73.30
2023-03-24T04:05:07.768Z,73.40
2023-03-24T04:08:03.600Z,73.40
2023-03-24T04:11:24.737Z,73.40
2023-03-24T04:14:31.907Z,73.30
2023-03-24T04:17:31.067Z,74.10
2023-03-24T04:20:10.649Z,73.20
2023-03-24T04:22:55.054Z,73.10
2023-03-24T04:25:35.220Z,73.00
2023-03-24T04:28:15.484Z,73.00
2023-03-24T04:30:50.426Z,73.10
2023-03-24T04:33:29.037Z,73.10
2023-03-24T04:36:06.650Z,73.10
2023-03-24T04:38:55.058Z,73.10
2023-03-24T04:41:40.547Z,73.00
2023-03-24T04:44:21.787Z,73.00
2023-03-24T04:47:14.782Z,73.00
2023-03-24T04:50:02.209Z,72.90
2023-03-24T04:52:32.117Z,73.00
2023-03-24T04:55:03.974Z,72.90
2023-03-24T04:57:33.219Z,72.90
2023-03-24T05:00:09.037Z,72.90
2023-03-24T05:02:39.551Z,72.90
2023-03-24T05:05:16.125Z,72.90
2023-03-24T05:07:48.370Z,72.80
2023-03-24T05:10:21.825Z,72.90
2023-03-24T05:12:56.133Z,72.90
2023-03-24T05:15:44.008Z,73.10
2023-03-24T05:18:31.328Z,73.30
2023-03-24T05:21:00.879Z,73.40
2023-03-24T05:23:30.093Z,73.60
2023-03-24T05:26:03.129Z,73.60
2023-03-24T05:28:35.470Z,73.70
2023-03-24T05:31:04.866Z,73.80
2023-03-24T05:33:48.585Z,73.90
2023-03-24T05:36:21.348Z,73.90
2023-03-24T05:38:56.835Z,74.00
2023-03-24T05:41:31.933Z,74.10
2023-03-24T05:44:00.959Z,74.20
2023-03-24T05:46:30.142Z,74.20
2023-03-24T05:49:00.934Z,74.30
2023-03-24T05:51:35.361Z,74.40
2023-03-24T05:54:07.556Z,74.30
2023-03-24T05:56:43.912Z,74.40
2023-03-24T05:59:31.920Z,74.40
2023-03-24T06:02:06.681Z,74.50
2023-03-24T06:04:57.692Z,74.50
2023-03-24T06:07:30.827Z,74.50
2023-03-24T06:10:03.220Z,74.60
2023-03-24T06:12:40.378Z,74.60
2023-03-24T06:15:11.216Z,74.50
2023-03-24T06:17:42.669Z,74.50
2023-03-24T06:20:20.947Z,74.40
2023-03-24T06:23:02.736Z,74.40
2023-03-24T06:25:44.811Z,74.30
2023-03-24T06:28:34.661Z,74.40
2023-03-24T06:31:19.442Z,74.30
2023-03-24T06:33:49.325Z,74.30
2023-03-24T06:36:19.880Z,74.20
2023-03-24T06:38:50.445Z,74.20
2023-03-24T06:41:22.447Z,74.20
2023-03-24T06:43:56.181Z,74.20
2023-03-24T06:46:25.502Z,74.20
2023-03-24T06:48:57.150Z,74.30
2023-03-24T06:51:28.036Z,74.30
2023-03-24T06:53:57.257Z,74.40
2023-03-24T06:56:27.238Z,74.50
2023-03-24T06:59:00.175Z,74.60
2023-03-24T07:01:35.268Z,74.80
2023-03-24T07:04:16.008Z,74.80
2023-03-24T07:07:12.484Z,74.90
2023-03-24T07:09:53.641Z,75.00
2023-03-24T07:12:22.938Z,74.90
2023-03-24T07:14:52.110Z,74.90
2023-03-24T07:17:22.699Z,75.00
2023-03-24T07:20:18.738Z,74.90
2023-03-24T07:23:09.512Z,75.00
2023-03-24T07:26:00.063Z,74.80
2023-03-24T07:28:47.523Z,74.70
2023-03-24T07:31:25.802Z,74.60
2023-03-24T07:34:02.204Z,74.40
2023-03-24T07:36:31.644Z,74.30
2023-03-24T07:39:04.816Z,74.30
2023-03-24T07:41:39.528Z,74.40
2023-03-24T07:44:16.821Z,74.30
2023-03-24T07:46:52.381Z,74.20
2023-03-24T07:49:22.175Z,74.30
2023-03-24T07:52:06.456Z,74.30
2023-03-24T07:54:40.882Z,74.20
2023-03-24T07:57:11.187Z,74.20
2023-03-24T07:59:40.549Z,74.10
2023-03-24T08:02:29.870Z,74.30
2023-03-24T08:05:20.861Z,74.30
2023-03-24T08:08:10.345Z,74.30
2023-03-24T08:10:42.747Z,74.30
2023-03-24T08:13:11.828Z,74.30
2023-03-24T08:15:41.225Z,74.40
2023-03-24T08:18:10.442Z,74.30
2023-03-24T08:20:42.115Z,74.30
2023-03-24T08:23:11.256Z,74.30
2023-03-24T08:25:42.048Z,74.20
2023-03-24T08:28:11.402Z,74.20
2023-03-24T08:30:43.718Z,74.10
2023-03-24T08:33:14.655Z,73.90
2023-03-24T08:35:45.311Z,73.60
2023-03-24T08:38:16.825Z,73.30
2023-03-24T08:40:49.092Z,73.00
2023-03-24T08:43:18.564Z,72.70
2023-03-24T08:45:47.876Z,71.70
2023-03-24T08:48:17.159Z,72.10
2023-03-24T08:50:46.197Z,71.60
2023-03-24T08:53:16.388Z,71.20
2023-03-24T08:55:45.753Z,70.90
2023-03-24T08:58:17.637Z,70.60
2023-03-24T09:00:48.559Z,70.40
2023-03-24T09:03:22.706Z,70.30
2023-03-24T09:05:52.360Z,70.10
2023-03-24T09:08:21.725Z,69.60
2023-03-24T09:10:51.471Z,69.30
2023-03-24T09:13:22.287Z,68.90
2023-03-24T09:15:53.554Z,68.50
2023-03-24T09:18:23.376Z,69.10
2023-03-24T09:20:52.814Z,67.90
2023-03-24T09:23:22.304Z,67.90
2023-03-24T09:25:51.853Z,67.70
2023-03-24T09:28:22.998Z,67.50
2023-03-24T09:30:52.693Z,67.40
2023-03-24T09:33:22.143Z,67.40
2023-03-24T09:35:57.781Z,67.40
2023-03-24T09:38:29.786Z,67.10
2023-03-24T09:41:02.839Z,67.00
2023-03-24T09:43:42.145Z,66.70
2023-03-24T09:46:16.297Z,66.20
2023-03-24T09:48:50.353Z,66.10
2023-03-24T09:51:25.395Z,65.60
2023-03-24T09:54:01.793Z,65.50
2023-03-24T09:56:31.575Z,65.70
2023-03-24T09:59:06.615Z,65.70
2023-03-24T10:01:36.563Z,65.10
2023-03-24T10:04:09.237Z,64.90
2023-03-24T10:06:42.143Z,64.60
2023-03-24T10:09:24.013Z,64.10
2023-03-24T10:12:02.290Z,63.80
2023-03-24T10:15:05.191Z,63.90
2023-03-24T10:17:43.944Z,63.90
2023-03-24T10:20:22.261Z,63.90
2023-03-24T10:23:00.969Z,63.90
2023-03-24T10:25:44.208Z,63.30
2023-03-24T10:28:21.045Z,62.70
2023-03-24T10:30:54.805Z,62.30
2023-03-24T10:33:23.890Z,62.10
2023-03-24T10:36:02.671Z,61.80
2023-03-24T10:38:32.096Z,61.60
2023-03-24T10:41:03.485Z,61.80
2023-03-24T10:43:33.455Z,61.70
2023-03-24T10:46:04.347Z,61.70
2023-03-24T10:48:47.350Z,61.40
2023-03-24T10:51:19.546Z,61.50
2023-03-24T10:53:50.779Z,61.60
2023-03-24T10:56:38.419Z,61.80
2023-03-24T10:59:28.951Z,61.90
2023-03-24T11:02:04.036Z,62.20
2023-03-24T11:04:34.032Z,62.30
2023-03-24T11:07:07.293Z,62.40
2023-03-24T11:09:44.771Z,62.70
2023-03-24T11:12:24.759Z,63.30
2023-03-24T11:15:07.521Z,63.70
2023-03-24T11:17:45.101Z,64.10
2023-03-24T11:20:19.911Z,65.20
2023-03-24T11:23:01.067Z,64.50
2023-03-24T11:25:33.771Z,64.60
2023-03-24T11:28:07.235Z,64.60
2023-03-24T11:30:48.026Z,64.60
2023-03-24T11:33:35.944Z,64.50
2023-03-24T11:36:34.858Z,65.10
2023-03-24T11:39:11.028Z,63.40
2023-03-24T11:41:43.440Z,62.80
2023-03-24T11:44:19.921Z,63.30
2023-03-24T11:46:52.600Z,63.40
2023-03-24T11:49:27.842Z,64.60
2023-03-24T11:51:57.258Z,63.80
2023-03-24T11:54:33.029Z,63.70
2023-03-24T11:57:06.685Z,63.70
2023-03-24T11:59:40.764Z,63.60
2023-03-24T12:02:20.622Z,63.60
2023-03-24T12:05:20.102Z,63.30
2023-03-24T12:08:24.231Z,62.70
2023-03-24T12:11:09.027Z,62.40
2023-03-24T12:13:42.903Z,62.00
2023-03-24T12:16:33.736Z,61.60
2023-03-24T12:19:35.192Z,61.30
2023-03-24T12:22:16.967Z,62.20
2023-03-24T12:25:23.449Z,61.20
2023-03-24T12:28:03.079Z,60.60
2023-03-24T12:30:39.413Z,60.20
2023-03-24T12:33:33.998Z,59.70
2023-03-24T12:36:21.151Z,59.50
2023-03-24T12:39:09.707Z,59.30
2023-03-24T12:42:04.380Z,58.90
2023-03-24T12:44:46.853Z,58.90
2023-03-24T12:47:29.039Z,58.70
2023-03-24T12:50:35.156Z,59.10
2023-03-24T12:53:23.167Z,59.10
2023-03-24T12:55:56.876Z,59.40
2023-03-24T12:58:35.880Z,59.50
2023-03-24T13:01:08.839Z,59.60
2023-03-24T13:03:41.573Z,59.70
2023-03-24T13:06:24.409Z,59.90
2023-03-24T13:09:11.275Z,59.70
2023-03-24T13:11:49.104Z,59.60
2023-03-24T13:14:24.911Z,59.50
2023-03-24T13:16:58.535Z,59.30
2023-03-24T13:19:30.531Z,59.20
2023-03-24T13:22:00.506Z,58.90
2023-03-24T13:24:29.735Z,58.70
2023-03-24T13:27:07.659Z,58.40
2023-03-24T13:30:01.368Z,58.30
2023-03-24T13:32:37.333Z,58.10
2023-03-24T13:35:14.580Z,58.10
2023-03-24T13:37:49.724Z,58.00
2023-03-24T13:40:24.644Z,57.60
2023-03-24T13:42:58.062Z,57.50
2023-03-24T13:45:41.371Z,57.40
2023-03-24T13:48:23.755Z,57.60
2023-03-24T13:50:57.929Z,58.80
2023-03-24T13:53:37.878Z,59.70
2023-03-24T13:56:09.549Z,60.50
2023-03-24T13:59:05.969Z,60.80
2023-03-24T14:01:39.022Z,61.00
2023-03-24T14:04:39.930Z,60.90
2023-03-24T14:07:47.481Z,60.00
2023-03-24T14:10:42.804Z,59.40
2023-03-24T14:13:22.801Z,58.90
2023-03-24T14:15:54.836Z,58.90
2023-03-24T14:18:43.370Z,58.80
2023-03-24T14:21:12.762Z,59.30
2023-03-24T14:23:43.361Z,59.80
2023-03-24T14:26:16.205Z,60.80
2023-03-24T14:28:46.775Z,61.30
2023-03-24T14:31:24.634Z,62.20
2023-03-24T14:34:03.655Z,63.60
2023-03-24T14:36:39.701Z,64.90
2023-03-24T14:39:13.732Z,65.60
2023-03-24T14:41:44.393Z,66.50
2023-03-24T14:44:13.656Z,67.00
2023-03-24T14:46:48.124Z,67.60
2023-03-24T14:49:23.577Z,68.30
2023-03-24T14:51:59.252Z,69.10
2023-03-24T14:54:35.666Z,70.00
2023-03-24T14:57:08.724Z,70.60
2023-03-24T14:59:45.457Z,70.80
2023-03-24T15:02:29.638Z,71.30
2023-03-24T15:05:22.567Z,71.60
2023-03-24T15:08:14.333Z,71.90
2023-03-24T15:10:47.881Z,72.00
2023-03-24T15:13:36.512Z,72.00
2023-03-24T15:16:08.014Z,72.10
2023-03-24T15:18:57.725Z,71.90
2023-03-24T15:21:34.509Z,72.00
2023-03-24T15:24:24.300Z,72.70
2023-03-24T15:26:55.447Z,71.60
2023-03-24T15:29:25.613Z,71.30
2023-03-24T15:31:54.780Z,71.00
2023-03-24T15:34:31.539Z,70.80
2023-03-24T15:37:03.712Z,70.40
2023-03-24T15:39:37.005Z,70.30
2023-03-24T15:42:07.634Z,70.30
2023-03-24T15:44:42.220Z,70.20
2023-03-24T15:47:17.356Z,70.30
2023-03-24T15:49:53.656Z,70.60
2023-03-24T15:52:31.128Z,70.80
2023-03-24T15:55:04.376Z,71.40
2023-03-24T15:57:41.884Z,71.80
2023-03-24T16:00:16.437Z,71.90
2023-03-24T16:02:49.224Z,72.00
2023-03-24T16:05:23.498Z,72.00
2023-03-24T16:07:57.567Z,72.20
2023-03-24T16:10:39.737Z,72.60
2023-03-24T16:13:16.381Z,73.10
2023-03-24T16:15:47.876Z,73.50
2023-03-24T16:18:20.031Z,73.80
2023-03-24T16:20:52.069Z,74.00
2023-03-24T16:23:21.181Z,73.90
2023-03-24T16:25:50.259Z,73.90
2023-03-24T16:28:21.633Z,73.70
2023-03-24T16:30:53.436Z,73.60
2023-03-24T16:33:22.605Z,73.40
2023-03-24T16:35:53.014Z,73.10
2023-03-24T16:38:22.135Z,72.80
2023-03-24T16:40:53.273Z,72.50
2023-03-24T16:43:23.066Z,72.20
2023-03-24T16:45:52.845Z,72.00
2023-03-24T16:48:22.195Z,71.80
2023-03-24T16:50:53.857Z,71.70
2023-03-24T16:53:22.922Z,71.60
2023-03-24T16:55:52.078Z,71.50
2023-03-24T16:58:21.062Z,71.50
2023-03-24T17:00:50.737Z,71.50
2023-03-24T17:03:20.057Z,71.40
2023-03-24T17:05:51.250Z,71.40
2023-03-24T17:08:21.895Z,71.20
2023-03-24T17:10:53.925Z,71.20
2023-03-24T17:13:25.057Z,71.10
2023-03-24T17:15:54.267Z,71.00
2023-03-24T17:18:24.094Z,71.10
2023-03-24T17:20:53.277Z,71.00
2023-03-24T17:23:23.801Z,71.00
2023-03-24T17:25:52.956Z,70.90
2023-03-24T17:28:22.329Z,70.90
2023-03-24T17:30:51.652Z,70.90
2023-03-24T17:33:21.050Z,71.00
2023-03-24T17:35:52.393Z,71.10
2023-03-24T17:38:21.222Z,71.30
2023-03-24T17:41:00.411Z,71.30
2023-03-24T17:43:29.800Z,71.20
2023-03-24T17:45:59.640Z,71.10
2023-03-24T17:48:28.938Z,71.20
2023-03-24T17:50:58.167Z,71.20
2023-03-24T17:53:28.009Z,71.30
2023-03-24T17:56:01.659Z,71.40
2023-03-24T17:58:30.944Z,71.60
2023-03-24T18:01:07.876Z,71.70
2023-03-24T18:03:38.370Z,71.80
2023-03-24T18:06:09.440Z,71.90
2023-03-24T18:08:40.593Z,71.90
2023-03-24T18:11:13.266Z,72.20
2023-03-24T18:13:43.048Z,72.40
2023-03-24T18:16:21.219Z,72.40
2023-03-24T18:18:51.688Z,72.60
2023-03-24T18:21:21.170Z,72.80
2023-03-24T18:23:50.425Z,73.10
2023-03-24T18:26:21.777Z,73.40
2023-03-24T18:28:50.729Z,73.60
2023-03-24T18:31:21.643Z,73.90
2023-03-24T18:33:51.882Z,73.80
2023-03-24T18:36:26.475Z,73.90
2023-03-24T18:38:59.819Z,74.00
2023-03-24T18:41:30.681Z,74.10
2023-03-24T18:44:00.856Z,74.20
2023-03-24T18:46:30.060Z,74.30
2023-03-24T18:48:59.464Z,74.50
2023-03-24T18:51:30.289Z,74.60
2023-03-24T18:53:59.661Z,74.50
2023-03-24T18:56:30.200Z,74.70
2023-03-24T18:58:59.589Z,74.90
2023-03-24T19:01:30.364Z,74.90
2023-03-24T19:03:59.647Z,75.00
2023-03-24T19:06:31.498Z,75.00
2023-03-24T19:09:01.480Z,75.10
2023-03-24T19:11:32.027Z,75.10
2023-03-24T19:14:01.094Z,75.10
2023-03-24T19:16:32.691Z,75.10
2023-03-24T19:19:01.762Z,75.10
2023-03-24T19:21:30.767Z,75.20
2023-03-24T19:23:59.934Z,75.30
2023-03-24T19:26:29.135Z,75.30
2023-03-24T19:28:59.541Z,75.40
2023-03-24T19:31:29.788Z,75.40
2023-03-24T19:33:58.877Z,75.70
2023-03-24T19:36:28.081Z,76.00
2023-03-24T19:38:59.704Z,76.10
2023-03-24T19:41:28.977Z,76.20
2023-03-24T19:43:59.448Z,76.40
2023-03-24T19:46:28.611Z,76.70
2023-03-24T19:48:57.885Z,77.00
2023-03-24T19:51:29.673Z,77.10
2023-03-24T19:53:58.695Z,77.50
2023-03-24T19:56:28.971Z,77.90
2023-03-24T19:58:59.720Z,78.10
2023-03-24T20:01:34.926Z,78.60
2023-03-24T20:04:04.101Z,78.70
2023-03-24T20:06:33.165Z,78.90
2023-03-24T20:09:04.990Z,79.00
2023-03-24T20:11:34.046Z,79.00
2023-03-24T20:14:04.490Z,79.10
2023-03-24T20:16:33.578Z,79.10
2023-03-24T20:19:02.773Z,79.20
2023-03-24T20:21:32.977Z,79.10
2023-03-24T20:24:03.909Z,79.40
2023-03-24T20:26:33.385Z,79.40
2023-03-24T20:29:04.561Z,79.40
2023-03-24T20:31:34.045Z,79.50
2023-03-24T20:34:03.333Z,79.40
2023-03-24T20:36:32.492Z,79.40
2023-03-24T20:39:02.587Z,79.40
2023-03-24T20:41:31.644Z,79.50
2023-03-24T20:44:00.893Z,79.50
2023-03-24T20:46:31.470Z,79.50
2023-03-24T20:49:00.511Z,79.50
2023-03-24T20:51:29.685Z,79.60
2023-03-24T20:53:58.856Z,79.70
2023-03-24T20:56:30.142Z,79.70
2023-03-24T20:59:02.613Z,79.80
2023-03-24T21:01:35.945Z,79.70
2023-03-24T21:04:09.377Z,79.70
2023-03-24T21:06:39.259Z,79.60
2023-03-24T21:09:08.783Z,79.70
2023-03-24T21:11:38.150Z,79.60
2023-03-24T21:14:07.214Z,79.60
2023-03-24T21:16:38.190Z,79.60
2023-03-24T21:19:09.207Z,80.40
2023-03-24T21:21:42.878Z,79.50
2023-03-24T21:24:14.151Z,79.50
2023-03-24T21:26:44.469Z,79.30
2023-03-24T21:29:14.042Z,79.30
2023-03-24T21:31:44.676Z,79.10
2023-03-24T21:34:13.775Z,79.00
2023-03-24T21:36:42.793Z,79.10
2023-03-24T21:39:12.603Z,79.20
2023-03-24T21:41:42.759Z,79.20
2023-03-24T21:44:12.149Z,79.30
2023-03-24T21:46:47.794Z,79.10
2023-03-24T21:49:19.181Z,79.10
2023-03-24T21:51:49.264Z,79.10
2023-03-24T21:54:18.845Z,79.10
2023-03-24T21:56:48.271Z,79.00
2023-03-24T21:59:17.279Z,79.00
2023-03-24T22:01:47.724Z,79.00
2023-03-24T22:04:17.648Z,78.90
2023-03-24T22:06:47.993Z,78.90
2023-03-24T22:09:19.117Z,78.90
2023-03-24T22:11:48.243Z,78.90
2023-03-24T22:14:19.193Z,79.00
2023-03-24T22:16:49.639Z,79.00
2023-03-24T22:19:20.249Z,79.00
2023-03-24T22:21:52.102Z,78.90
2023-03-24T22:24:21.216Z,78.80
2023-03-24T22:26:50.231Z,78.90
2023-03-24T22:29:19.296Z,78.90
2023-03-24T22:31:49.882Z,79.10
2023-03-24T22:34:18.964Z,79.20
2023-03-24T22:36:48.033Z,79.40
2023-03-24T22:39:17.036Z,79.30
2023-03-24T22:41:46.072Z,79.40
2023-03-24T22:44:15.124Z,79.50
2023-03-24T22:46:44.654Z,79.50
2023-03-24T22:49:15.005Z,79.80
2023-03-24T22:51:44.059Z,79.90
2023-03-24T22:54:13.077Z,79.90
2023-03-24T22:56:42.305Z,79.90
2023-03-24T22:59:11.305Z,79.80
2023-03-24T23:01:40.518Z,79.90
2023-03-24T23:04:12.043Z,79.90
2023-03-24T23:06:42.513Z,80.00
2023-03-24T23:09:11.881Z,80.10
2023-03-24T23:11:41.003Z,80.30
2023-03-24T23:14:13.088Z,80.40
2023-03-24T23:16:45.701Z,80.50
2023-03-24T23:19:16.444Z,80.60
2023-03-24T23:21:46.789Z,80.70
2023-03-24T23:24:15.947Z,80.70
2023-03-24T23:26:45.006Z,80.70
2023-03-24T23:29:14.321Z,80.70
2023-03-24T23:31:46.199Z,80.80
2023-03-24T23:34:15.210Z,80.80
2023-03-24T23:36:44.914Z,80.90
2023-03-24T23:39:15.623Z,81.00
2023-03-24T23:41:46.442Z,81.00
2023-03-24T23:44:19.627Z,81.10
2023-03-24T23:46:48.647Z,81.10
2023-03-24T23:49:17.841Z,81.00
2023-03-24T23:51:47.260Z,80.70
2023-03-24T23:54:17.797Z,80.40
2023-03-24T23:56:47.353Z,80.20
2023-03-24T23:59:16.941Z,79.90
